createdAt,value
2022-11-23T00:00:33.449Z,2.17
2022-11-23T00:03:01.429Z,2.10
2022-11-23T00:05:30.170Z,1.70
2022-11-23T00:07:59.026Z,2.27
2022-11-23T00:10:26.543Z,1.53
2022-11-23T00:12:54.067Z,1.30
2022-11-23T00:15:21.564Z,2.63
2022-11-23T00:17:49.127Z,1.90
2022-11-23T00:20:17.205Z,1.10
2022-11-23T00:22:44.679Z,1.33
2022-11-23T00:25:13.567Z,1.40
2022-11-23T00:27:41.066Z,1.63
2022-11-23T00:30:09.956Z,1.50
2022-11-23T00:32:37.493Z,1.90
2022-11-23T00:35:05.667Z,1.53
2022-11-23T00:37:33.127Z,1.57
2022-11-23T00:40:00.620Z,1.67
2022-11-23T00:42:32.593Z,1.73
2022-11-23T00:45:04.707Z,1.53
2022-11-23T00:47:32.242Z,1.63
2022-11-23T00:49:59.806Z,2.00
2022-11-23T00:52:27.309Z,1.67
2022-11-23T00:54:54.820Z,2.00
2022-11-23T00:57:22.313Z,1.63
2022-11-23T00:59:51.142Z,1.97
2022-11-23T01:02:18.637Z,1.50
2022-11-23T01:04:46.118Z,1.73
2022-11-23T01:07:13.654Z,1.57
2022-11-23T01:09:41.189Z,2.13
2022-11-23T01:12:08.710Z,1.87
2022-11-23T01:14:36.232Z,1.83
2022-11-23T01:17:05.064Z,2.53
2022-11-23T01:19:32.686Z,1.90
2022-11-23T01:22:00.328Z,1.40
2022-11-23T01:24:27.836Z,1.63
2022-11-23T01:26:56.244Z,2.00
2022-11-23T01:29:24.264Z,1.97
2022-11-23T01:31:51.763Z,2.10
2022-11-23T01:34:20.604Z,1.73
2022-11-23T01:36:48.304Z,1.83
2022-11-23T01:39:15.804Z,2.10
2022-11-23T01:41:44.884Z,2.33
2022-11-23T01:44:28.415Z,1.90
2022-11-23T01:46:56.640Z,1.77
2022-11-23T01:49:26.081Z,1.90
2022-11-23T01:51:55.467Z,2.57
2022-11-23T01:54:26.355Z,1.70
2022-11-23T01:56:56.054Z,1.70
2022-11-23T01:59:24.490Z,1.80
2022-11-23T02:01:52.022Z,1.57
2022-11-23T02:04:23.451Z,2.40
2022-11-23T02:06:53.578Z,2.53
2022-11-23T02:09:21.142Z,2.03
2022-11-23T02:11:48.633Z,1.60
2022-11-23T02:14:20.477Z,1.90
2022-11-23T02:16:50.841Z,1.53
2022-11-23T02:19:22.631Z,1.03
2022-11-23T02:21:54.234Z,1.43
2022-11-23T02:24:26.583Z,1.50
2022-11-23T02:26:56.011Z,2.33
2022-11-23T02:29:25.147Z,1.67
2022-11-23T02:31:52.932Z,1.60
2022-11-23T02:34:20.775Z,1.90
2022-11-23T02:36:50.407Z,1.53
2022-11-23T02:39:20.366Z,2.60
2022-11-23T02:41:49.464Z,2.00
2022-11-23T02:44:26.895Z,1.83
2022-11-23T02:46:55.070Z,1.23
2022-11-23T02:49:22.620Z,2.03
2022-11-23T02:51:50.127Z,1.50
2022-11-23T02:54:17.655Z,1.33
2022-11-23T02:56:45.142Z,1.30
2022-11-23T02:59:12.655Z,1.73
2022-11-23T03:01:41.513Z,1.47
2022-11-23T03:04:09.573Z,1.70
2022-11-23T03:06:37.509Z,1.93
2022-11-23T03:09:05.733Z,1.80
2022-11-23T03:11:33.297Z,1.63
2022-11-23T03:14:01.059Z,1.60
2022-11-23T03:16:28.544Z,1.47
2022-11-23T03:18:57.380Z,1.63
2022-11-23T03:21:24.909Z,1.97
2022-11-23T03:23:52.416Z,1.70
2022-11-23T03:26:19.949Z,2.70
2022-11-23T03:28:47.470Z,1.77
2022-11-23T03:31:14.998Z,1.53
2022-11-23T03:33:42.547Z,2.77
2022-11-23T03:36:11.704Z,1.93
2022-11-23T03:38:39.178Z,1.30
2022-11-23T03:41:06.671Z,1.80
2022-11-23T03:43:34.198Z,1.50
2022-11-23T03:46:01.673Z,1.97
2022-11-23T03:48:29.174Z,2.00
2022-11-23T03:50:56.668Z,1.80
2022-11-23T03:53:25.541Z,1.33
2022-11-23T03:55:55.299Z,1.73
2022-11-23T03:58:22.854Z,1.93
2022-11-23T04:00:50.576Z,2.60
2022-11-23T04:03:18.118Z,1.47
2022-11-23T04:05:45.688Z,2.03
2022-11-23T04:08:13.349Z,3.73
2022-11-23T04:10:42.148Z,1.47
2022-11-23T04:13:09.685Z,1.50
2022-11-23T04:15:37.179Z,1.67
2022-11-23T04:18:04.911Z,1.57
2022-11-23T04:20:32.394Z,1.80
2022-11-23T04:22:59.876Z,1.90
2022-11-23T04:25:27.388Z,2.40
2022-11-23T04:27:56.276Z,1.60
2022-11-23T04:30:23.847Z,1.67
2022-11-23T04:32:51.343Z,2.00
2022-11-23T04:35:19.618Z,3.23
2022-11-23T04:37:47.102Z,2.17
2022-11-23T04:40:15.151Z,1.50
2022-11-23T04:42:42.723Z,1.50
2022-11-23T04:45:12.394Z,1.70
2022-11-23T04:47:39.890Z,1.77
2022-11-23T04:50:07.989Z,2.90
2022-11-23T04:52:35.540Z,2.30
2022-11-23T04:55:03.016Z,1.43
2022-11-23T04:57:30.486Z,1.33
2022-11-23T04:59:57.942Z,1.80
2022-11-23T05:02:26.817Z,2.40
2022-11-23T05:04:54.276Z,1.87
2022-11-23T05:07:21.820Z,1.83
2022-11-23T05:09:49.331Z,2.20
2022-11-23T05:12:16.839Z,1.77
2022-11-23T05:14:44.321Z,1.67
2022-11-23T05:17:12.221Z,2.00
2022-11-23T05:19:41.036Z,1.73
2022-11-23T05:22:08.574Z,1.97
2022-11-23T05:24:36.059Z,1.63
2022-11-23T05:27:03.596Z,1.63
2022-11-23T05:29:31.393Z,2.47
2022-11-23T05:31:59.121Z,1.60
2022-11-23T05:34:26.602Z,1.70
2022-11-23T05:36:55.436Z,3.93
2022-11-23T05:39:22.927Z,3.70
2022-11-23T05:41:50.404Z,3.53
2022-11-23T05:44:17.902Z,1.73
2022-11-23T05:46:45.414Z,2.10
2022-11-23T05:49:13.196Z,2.07
2022-11-23T05:51:40.682Z,1.67
2022-11-23T05:54:09.614Z,1.80
2022-11-23T05:56:40.190Z,2.80
2022-11-23T05:59:08.045Z,1.90
2022-11-23T06:01:35.670Z,2.37
2022-11-23T06:04:03.237Z,1.50
2022-11-23T06:06:30.812Z,1.53
2022-11-23T06:08:58.317Z,1.60
2022-11-23T06:11:27.174Z,2.00
2022-11-23T06:13:54.673Z,1.87
2022-11-23T06:16:22.159Z,1.90
2022-11-23T06:18:49.631Z,1.93
2022-11-23T06:21:17.143Z,2.30
2022-11-23T06:23:44.684Z,1.90
2022-11-23T06:26:12.200Z,2.07
2022-11-23T06:28:41.213Z,3.23
2022-11-23T06:31:08.902Z,3.33
2022-11-23T06:33:36.434Z,4.40
2022-11-23T06:36:04.783Z,2.57
2022-11-23T06:38:32.477Z,2.00
2022-11-23T06:41:00.730Z,1.90
2022-11-23T06:43:28.585Z,2.13
2022-11-23T06:45:57.715Z,2.20
2022-11-23T06:48:25.245Z,1.70
2022-11-23T06:50:52.784Z,1.40
2022-11-23T06:53:20.323Z,2.53
2022-11-23T06:55:47.827Z,2.27
2022-11-23T06:58:15.379Z,1.77
2022-11-23T07:00:42.941Z,1.63
2022-11-23T07:03:19.740Z,2.07
2022-11-23T07:05:47.437Z,2.90
2022-11-23T07:08:15.153Z,2.10
2022-11-23T07:10:42.629Z,1.90
2022-11-23T07:13:11.548Z,2.00
2022-11-23T07:15:39.606Z,1.77
2022-11-23T07:18:07.791Z,1.83
2022-11-23T07:20:36.701Z,2.40
2022-11-23T07:23:06.214Z,2.10
2022-11-23T07:25:35.563Z,2.33
2022-11-23T07:28:04.042Z,4.50
2022-11-23T07:30:32.641Z,4.33
2022-11-23T07:33:00.609Z,4.83
2022-11-23T07:35:28.316Z,3.90
2022-11-23T07:37:57.161Z,3.13
2022-11-23T07:40:24.671Z,2.73
2022-11-23T07:42:52.231Z,2.13
2022-11-23T07:45:19.928Z,1.93
2022-11-23T07:47:47.521Z,1.83
2022-11-23T07:50:15.769Z,2.00
2022-11-23T07:52:43.287Z,1.53
2022-11-23T07:55:12.196Z,2.70
2022-11-23T07:57:39.684Z,1.93
2022-11-23T08:00:08.894Z,2.00
2022-11-23T08:02:36.512Z,1.40
2022-11-23T08:05:04.173Z,1.67
2022-11-23T08:07:31.775Z,1.77
2022-11-23T08:09:59.347Z,1.80
2022-11-23T08:12:28.231Z,2.10
2022-11-23T08:14:55.743Z,2.20
2022-11-23T08:17:23.238Z,2.73
2022-11-23T08:19:50.758Z,2.27
2022-11-23T08:22:18.311Z,1.50
2022-11-23T08:24:47.890Z,1.90
2022-11-23T08:27:15.380Z,2.03
2022-11-23T08:29:44.274Z,1.70
2022-11-23T08:32:12.660Z,1.40
2022-11-23T08:34:40.134Z,1.93
2022-11-23T08:37:07.624Z,2.00
2022-11-23T08:39:35.128Z,1.60
2022-11-23T08:42:02.611Z,1.77
2022-11-23T08:44:30.680Z,1.80
2022-11-23T08:46:59.738Z,1.33
2022-11-23T08:49:27.291Z,2.20
2022-11-23T08:51:55.432Z,2.37
2022-11-23T08:54:24.205Z,1.90
2022-11-23T08:56:51.943Z,3.10
2022-11-23T08:59:20.285Z,2.27
2022-11-23T09:01:47.895Z,1.80
2022-11-23T09:04:20.713Z,1.70
2022-11-23T09:06:48.632Z,1.50
2022-11-23T09:09:16.156Z,2.40
2022-11-23T09:11:43.627Z,1.77
2022-11-23T09:14:11.161Z,1.47
2022-11-23T09:16:38.784Z,1.60
2022-11-23T09:19:07.185Z,1.70
2022-11-23T09:21:39.080Z,2.60
2022-11-23T09:24:07.430Z,2.03
2022-11-23T09:26:35.070Z,1.70
2022-11-23T09:29:02.618Z,1.87
2022-11-23T09:31:30.100Z,1.60
2022-11-23T09:33:57.614Z,1.90
2022-11-23T09:36:25.336Z,2.10
2022-11-23T09:38:57.049Z,1.90
2022-11-23T09:41:44.240Z,1.90
2022-11-23T09:44:18.329Z,1.73
2022-11-23T09:46:58.986Z,1.70
2022-11-23T09:49:30.617Z,1.73
2022-11-23T09:51:58.456Z,2.53
2022-11-23T09:54:31.801Z,1.90
2022-11-23T09:57:01.946Z,2.60
2022-11-23T09:59:39.516Z,1.50
2022-11-23T10:02:07.292Z,1.80
2022-11-23T10:04:35.885Z,2.20
2022-11-23T10:07:13.600Z,2.50
2022-11-23T10:09:50.323Z,1.70
2022-11-23T10:12:38.636Z,2.00
2022-11-23T10:15:14.040Z,2.73
2022-11-23T10:17:54.544Z,1.67
2022-11-23T10:20:35.173Z,1.77
2022-11-23T10:23:04.366Z,2.77
2022-11-23T10:25:39.621Z,1.77
2022-11-23T10:28:13.862Z,1.80
2022-11-23T10:30:42.010Z,1.80
2022-11-23T10:33:20.565Z,2.43
2022-11-23T10:35:48.176Z,1.40
2022-11-23T10:38:19.445Z,1.40
2022-11-23T10:40:59.353Z,1.47
2022-11-23T10:43:29.056Z,1.30
2022-11-23T10:46:29.264Z,2.03
2022-11-23T10:48:57.332Z,1.43
2022-11-23T10:51:29.383Z,1.93
2022-11-23T10:54:04.894Z,1.40
2022-11-23T10:56:34.497Z,2.00
2022-11-23T10:59:02.114Z,1.40
2022-11-23T11:01:30.573Z,1.40
2022-11-23T11:04:03.784Z,1.50
2022-11-23T11:06:34.076Z,1.13
2022-11-23T11:09:03.916Z,1.70
2022-11-23T11:11:34.737Z,1.10
2022-11-23T11:14:04.843Z,1.00
2022-11-23T11:16:33.802Z,1.43
2022-11-23T11:19:27.127Z,1.40
2022-11-23T11:21:54.978Z,1.43
2022-11-23T11:24:26.671Z,1.90
2022-11-23T11:26:59.853Z,1.13
2022-11-23T11:29:38.716Z,1.80
2022-11-23T11:32:10.206Z,1.00
2022-11-23T11:34:43.793Z,1.10
2022-11-23T11:37:15.039Z,1.40
2022-11-23T11:39:46.262Z,1.83
2022-11-23T11:42:19.469Z,1.57
2022-11-23T11:44:48.135Z,1.43
2022-11-23T11:47:24.455Z,1.33
2022-11-23T11:49:55.555Z,1.67
2022-11-23T11:52:26.502Z,2.17
2022-11-23T11:54:57.573Z,1.27
2022-11-23T11:57:29.210Z,1.53
2022-11-23T11:59:58.308Z,1.70
2022-11-23T12:02:28.014Z,1.33
2022-11-23T12:05:01.391Z,1.50
2022-11-23T12:07:31.925Z,1.77
2022-11-23T12:10:05.363Z,1.40
2022-11-23T12:12:36.330Z,1.13
2022-11-23T12:15:15.282Z,1.20
2022-11-23T12:18:14.597Z,1.00
2022-11-23T12:20:47.753Z,2.00
2022-11-23T12:23:24.749Z,1.10
2022-11-23T12:25:58.499Z,1.63
2022-11-23T12:28:44.300Z,2.70
2022-11-23T12:31:19.200Z,0.90
2022-11-23T12:34:08.130Z,1.30
2022-11-23T12:36:53.362Z,1.03
2022-11-23T12:39:45.971Z,1.00
2022-11-23T12:42:17.092Z,1.20
2022-11-23T12:45:01.064Z,0.90
2022-11-23T12:47:39.932Z,1.00
2022-11-23T12:50:18.609Z,1.37
2022-11-23T12:53:00.466Z,0.70
2022-11-23T12:55:33.916Z,1.20
2022-11-23T12:58:05.473Z,1.03
2022-11-23T13:00:36.222Z,1.03
2022-11-23T13:03:40.153Z,0.90
2022-11-23T13:07:05.672Z,0.70
2022-11-23T13:09:43.005Z,1.67
2022-11-23T13:12:34.656Z,1.00
2022-11-23T13:15:17.403Z,0.70
2022-11-23T13:17:51.310Z,1.13
2022-11-23T13:20:29.732Z,0.70
2022-11-23T13:22:58.212Z,0.93
2022-11-23T13:25:27.889Z,0.90
2022-11-23T13:27:57.634Z,1.10
2022-11-23T13:30:45.689Z,0.83
2022-11-23T13:33:38.229Z,0.93
2022-11-23T13:36:11.437Z,0.93
2022-11-23T13:38:43.297Z,1.20
2022-11-23T13:41:55.360Z,0.90
2022-11-23T13:44:25.610Z,1.47
2022-11-23T13:47:04.571Z,0.70
2022-11-23T13:49:36.588Z,1.20
2022-11-23T13:52:27.246Z,1.03
2022-11-23T13:54:56.993Z,0.80
2022-11-23T13:57:24.614Z,1.30
2022-11-23T13:59:52.125Z,1.00
2022-11-23T14:02:29.136Z,1.10
2022-11-23T14:05:45.753Z,0.97
2022-11-23T14:08:15.251Z,0.80
2022-11-23T14:10:42.760Z,1.00
2022-11-23T14:13:15.505Z,0.90
2022-11-23T14:15:48.271Z,1.00
2022-11-23T14:18:32.330Z,0.90
2022-11-23T14:21:09.320Z,1.20
2022-11-23T14:24:23.165Z,0.90
2022-11-23T14:27:04.138Z,1.40
2022-11-23T14:30:05.567Z,1.13
2022-11-23T14:32:46.387Z,0.97
2022-11-23T14:35:22.039Z,1.50
2022-11-23T14:38:01.402Z,1.80
2022-11-23T14:40:31.907Z,1.47
2022-11-23T14:43:01.453Z,1.07
2022-11-23T14:45:31.049Z,1.10
2022-11-23T14:47:58.630Z,0.87
2022-11-23T14:50:28.333Z,0.83
2022-11-23T14:52:57.353Z,0.80
2022-11-23T14:55:26.753Z,0.83
2022-11-23T14:58:00.526Z,1.00
2022-11-23T15:00:32.143Z,1.87
2022-11-23T15:03:15.373Z,1.00
2022-11-23T15:05:52.748Z,1.00
2022-11-23T15:08:22.993Z,1.17
2022-11-23T15:10:53.420Z,0.97
2022-11-23T15:13:24.392Z,1.07
2022-11-23T15:15:53.627Z,1.13
2022-11-23T15:18:28.470Z,1.00
2022-11-23T15:20:56.004Z,1.10
2022-11-23T15:23:29.096Z,1.10
2022-11-23T15:25:57.838Z,1.00
2022-11-23T15:28:28.319Z,1.50
2022-11-23T15:30:58.656Z,1.00
2022-11-23T15:33:26.850Z,1.00
2022-11-23T15:35:54.938Z,1.40
2022-11-23T15:38:24.121Z,0.93
2022-11-23T15:40:52.206Z,1.37
2022-11-23T15:43:20.721Z,1.80
2022-11-23T15:46:06.755Z,1.30
2022-11-23T15:48:37.009Z,4.40
2022-11-23T15:51:06.129Z,3.57
2022-11-23T15:53:36.984Z,3.00
2022-11-23T15:56:06.667Z,2.37
2022-11-23T15:58:35.106Z,1.83
2022-11-23T16:01:08.568Z,1.40
2022-11-23T16:03:40.792Z,1.73
2022-11-23T16:06:19.091Z,1.33
2022-11-23T16:08:46.805Z,1.83
2022-11-23T16:11:30.219Z,1.93
2022-11-23T16:14:15.700Z,1.27
2022-11-23T16:16:46.526Z,1.23
2022-11-23T16:19:22.803Z,1.27
2022-11-23T16:21:50.963Z,2.13
2022-11-23T16:24:21.315Z,1.50
2022-11-23T16:26:48.953Z,1.30
2022-11-23T16:29:21.882Z,1.80
2022-11-23T16:32:01.480Z,2.00
2022-11-23T16:34:29.269Z,1.50
2022-11-23T16:36:59.119Z,2.60
2022-11-23T16:39:27.529Z,2.13
2022-11-23T16:41:55.195Z,1.73
2022-11-23T16:44:22.702Z,2.93
2022-11-23T16:46:50.563Z,3.00
2022-11-23T16:49:20.747Z,2.40
2022-11-23T16:51:56.291Z,3.07
2022-11-23T16:54:25.304Z,1.97
2022-11-23T16:56:53.172Z,1.87
2022-11-23T16:59:22.183Z,1.70
2022-11-23T17:01:56.620Z,1.60
2022-11-23T17:04:26.680Z,1.40
2022-11-23T17:06:54.220Z,1.50
2022-11-23T17:09:21.692Z,1.50
2022-11-23T17:11:50.217Z,1.27
2022-11-23T17:14:19.267Z,1.70
2022-11-23T17:17:01.793Z,1.43
2022-11-23T17:19:31.193Z,1.00
2022-11-23T17:21:58.883Z,1.63
2022-11-23T17:24:26.391Z,2.07
2022-11-23T17:26:54.869Z,2.27
2022-11-23T17:29:24.030Z,1.87
2022-11-23T17:31:52.057Z,1.30
2022-11-23T17:34:19.644Z,2.23
2022-11-23T17:36:50.782Z,1.90
2022-11-23T17:39:20.492Z,2.00
2022-11-23T17:41:49.016Z,1.33
2022-11-23T17:44:17.488Z,1.40
2022-11-23T17:46:47.380Z,1.87
2022-11-23T17:49:23.218Z,1.83
2022-11-23T17:51:54.485Z,1.50
2022-11-23T17:54:36.432Z,1.47
2022-11-23T17:57:04.336Z,1.20
2022-11-23T17:59:32.591Z,1.93
2022-11-23T18:02:00.501Z,1.30
2022-11-23T18:04:28.426Z,1.50
2022-11-23T18:06:57.313Z,1.57
2022-11-23T18:09:24.840Z,1.90
2022-11-23T18:11:52.400Z,1.80
2022-11-23T18:14:21.789Z,1.97
2022-11-23T18:16:49.585Z,2.57
2022-11-23T18:19:17.673Z,3.93
2022-11-23T18:21:45.224Z,1.93
2022-11-23T18:24:14.614Z,1.90
2022-11-23T18:26:42.627Z,2.13
2022-11-23T18:29:28.805Z,2.10
2022-11-23T18:31:56.570Z,2.27
2022-11-23T18:34:24.409Z,2.23
2022-11-23T18:36:52.142Z,3.13
2022-11-23T18:39:21.255Z,2.50
2022-11-23T18:41:48.852Z,2.40
2022-11-23T18:44:16.732Z,2.07
2022-11-23T18:46:45.852Z,2.13
2022-11-23T18:49:14.111Z,1.90
2022-11-23T18:51:42.959Z,2.53
2022-11-23T18:54:10.648Z,2.10
2022-11-23T18:56:43.078Z,1.83
2022-11-23T18:59:28.739Z,2.30
2022-11-23T19:01:58.744Z,1.80
2022-11-23T19:04:26.755Z,1.80
2022-11-23T19:06:56.118Z,2.10
2022-11-23T19:09:23.960Z,2.00
2022-11-23T19:11:55.415Z,1.73
2022-11-23T19:14:27.248Z,3.07
2022-11-23T19:16:54.874Z,2.33
2022-11-23T19:19:22.352Z,2.90
2022-11-23T19:21:49.797Z,2.10
2022-11-23T19:24:17.389Z,2.80
2022-11-23T19:26:45.205Z,2.10
2022-11-23T19:29:14.623Z,2.30
2022-11-23T19:31:42.521Z,2.50
2022-11-23T19:34:10.764Z,2.57
2022-11-23T19:36:41.138Z,2.40
2022-11-23T19:39:10.047Z,6.90
2022-11-23T19:41:42.085Z,6.20
2022-11-23T19:44:11.797Z,4.80
2022-11-23T19:46:42.959Z,3.93
2022-11-23T19:49:10.793Z,3.13
2022-11-23T19:51:40.167Z,3.63
2022-11-23T19:54:09.824Z,3.67
2022-11-23T19:56:39.833Z,4.20
2022-11-23T19:59:09.617Z,3.17
2022-11-23T20:01:37.748Z,3.60
2022-11-23T20:04:09.712Z,3.40
2022-11-23T20:06:38.619Z,4.50
2022-11-23T20:09:07.822Z,4.40
2022-11-23T20:11:36.252Z,5.80
2022-11-23T20:14:05.252Z,5.37
2022-11-23T20:16:33.745Z,4.07
2022-11-23T20:19:02.635Z,5.10
2022-11-23T20:21:32.947Z,3.77
2022-11-23T20:24:06.320Z,2.80
2022-11-23T20:26:34.641Z,3.07
2022-11-23T20:29:02.222Z,4.30
2022-11-23T20:31:31.630Z,4.17
2022-11-23T20:34:06.443Z,4.57
2022-11-23T20:36:39.052Z,5.10
2022-11-23T20:39:08.663Z,6.23
2022-11-23T20:41:38.045Z,3.90
2022-11-23T20:44:07.272Z,2.80
2022-11-23T20:49:25.170Z,2.90
2022-11-23T20:51:54.351Z,2.77
2022-11-23T20:54:22.136Z,2.60
2022-11-23T20:56:54.012Z,3.17
2022-11-23T20:59:23.716Z,2.50
2022-11-23T21:01:51.466Z,2.90
2022-11-23T21:04:19.235Z,3.47
2022-11-23T21:06:47.020Z,3.20
2022-11-23T21:09:16.991Z,3.10
2022-11-23T21:12:02.092Z,3.60
2022-11-23T21:14:32.613Z,3.60
2022-11-23T21:17:00.995Z,3.20
2022-11-23T21:19:30.308Z,3.20
2022-11-23T21:22:05.572Z,3.23
2022-11-23T21:24:36.268Z,4.00
2022-11-23T21:27:05.341Z,3.53
2022-11-23T21:29:35.009Z,3.83
2022-11-23T21:32:02.692Z,3.40
2022-11-23T21:34:33.147Z,3.67
2022-11-23T21:37:01.667Z,3.40
2022-11-23T21:39:31.021Z,3.87
2022-11-23T21:42:00.135Z,4.37
2022-11-23T21:44:28.138Z,3.80
2022-11-23T21:46:55.897Z,4.30
2022-11-23T21:49:23.753Z,3.47
2022-11-23T21:51:51.461Z,4.00
2022-11-23T21:54:20.976Z,3.57
2022-11-23T21:56:48.928Z,4.17
2022-11-23T21:59:23.275Z,4.13
2022-11-23T22:01:52.366Z,4.30
2022-11-23T22:04:42.751Z,3.20
2022-11-23T22:07:08.447Z,3.30
2022-11-23T22:09:37.999Z,3.57
2022-11-23T22:12:06.392Z,5.63
2022-11-23T22:14:35.833Z,4.10
2022-11-23T22:17:04.285Z,3.93
2022-11-23T22:19:36.131Z,2.87
2022-11-23T22:22:06.571Z,3.10
2022-11-23T22:24:35.665Z,3.80
2022-11-23T22:27:03.582Z,3.93
2022-11-23T22:29:31.226Z,3.40
2022-11-23T22:32:01.398Z,3.77
2022-11-23T22:34:30.055Z,4.13
2022-11-23T22:36:58.106Z,4.37
2022-11-23T22:39:27.113Z,4.10
2022-11-23T22:41:56.855Z,3.53
2022-11-23T22:44:27.254Z,4.17
2022-11-23T22:46:54.878Z,4.50
2022-11-23T22:49:25.366Z,4.63
2022-11-23T22:51:53.028Z,4.43
2022-11-23T22:54:20.698Z,3.90
2022-11-23T22:56:48.761Z,4.80
2022-11-23T22:59:16.362Z,4.70
2022-11-23T23:01:49.194Z,4.60
2022-11-23T23:04:18.576Z,3.77
2022-11-23T23:06:50.807Z,4.30
2022-11-23T23:09:20.066Z,3.73
2022-11-23T23:11:49.007Z,4.27
2022-11-23T23:14:19.593Z,4.73
2022-11-23T23:16:47.354Z,4.50
2022-11-23T23:19:15.075Z,4.47
2022-11-23T23:21:42.812Z,4.50
2022-11-23T23:24:12.006Z,3.80
2022-11-23T23:26:39.532Z,4.33
2022-11-23T23:29:07.026Z,3.20
2022-11-23T23:31:34.576Z,3.43
2022-11-23T23:34:02.298Z,2.97
2022-11-23T23:36:30.576Z,3.90
2022-11-23T23:38:58.529Z,3.60
2022-11-23T23:41:27.426Z,3.83
2022-11-23T23:43:54.914Z,3.63
2022-11-23T23:46:22.500Z,3.70
2022-11-23T23:48:50.019Z,3.07
2022-11-23T23:51:19.083Z,2.90
2022-11-23T23:53:47.029Z,3.10
2022-11-23T23:56:17.019Z,3.80
2022-11-23T23:58:46.140Z,3.27
